UPSVAC Airport Information Service

Leipzig Halle Airport

ICAO: EDDP Country: Germany
Latitude: 51.4324 Longitude: 12.2416
Latest Arrival : SOX275 (G) (KCVG-EDDP) Latest Departure : SOX9190 (EDDP-VHHH)


WX CaptureLIVE
Data provided by noaa.gov | Fetched at 12:55:09

METAR : EDDP 251220Z 23005KT CAVOK 01/M01 Q1003 R26R/2901// R26L/190195 NOSIG

TAF : EDDP 251100Z 2512/2612 23005KT 9999 SCT035 BECMG 2600/2603 23010KT BECMG 2603/2606 BKN010 TEMPO 2605/2611 1400 SN BKN004 BECMG 2610/2612 30008KT


Runway Data for EDDP
Data provided by openaviationdata.com

Runway ID Mag Var Hdg Length Elevation Surface ILS Freq ILS Id ILS Slope
8 1 84° 11786 ft 427 ft Concrete 108.55 ILNE 3
10 1 104° 8183 ft 427 ft Concrete 111.9 ILZE 3
26 1 264° 11786 ft 427 ft Concrete 108.35 ILNW 3
28 1 284° 8183 ft 427 ft Concrete 110.3 ILZW 3

Leipzig Halle Airport, Germany
Use only for reference purposes



Not for navigational purposes.